1899 NOT_NAMED (1899063S12145)


IBTrACS version v04r00. Visit IBTrACS website for data access.
Please direct all questions to the IBTrACS Q and A forum

Storm track - Intensity - Wind Radii - Intensity Data - Source Data - All data

Summary Information

Storm ID 1899063S12145
Start Mar 3 12Z
Landfall Mar 5 09Z, Mar 8 03Z
End Mar 10 00Z
ATCF IDs
Track status Best track data.

Storm track plot

Map of storm track

Intensity plots

No Intensity information for this storm


Radial wind information

No radial wind information for this storm


Position and Intensity Table

BASIN ISO_TIME_________ NATURE LAT LON
degrees north degrees east
SP 1899-03-03 12:00:00 NR -12.20 145.40
SP 15:00:00 NR -12.18 145.41
SP 18:00:00 NR -12.18 145.42
SP 21:00:00 NR -12.21 145.42
SP 1899-03-04 00:00:00 NR -12.30 145.40
SP 03:00:00 NR -12.45 145.36
SP 06:00:00 NR -12.63 145.30
SP 09:00:00 NR -12.83 145.21
SP 12:00:00 NR -13.00 145.10
SP 15:00:00 NR -13.11 145.01
SP 18:00:00 NR -13.19 144.89
SP 21:00:00 NR -13.25 144.73
SP 1899-03-05 00:00:00 NR -13.30 144.50
SP 03:00:00 NR -13.36 144.19
SP 06:00:00 NR -13.42 143.83
SP 09:00:00 NR -13.46 143.42
SP 12:00:00 NR -13.50 143.00
SP 15:00:00 NR -13.52 142.55
SP 18:00:00 NR -13.54 142.11
SP 21:00:00 NR -13.57 141.71
SP 1899-03-06 00:00:00 NR -13.60 141.40
SP 03:00:00 NR -13.66 141.23
SP 06:00:00 NR -13.74 141.15
SP 09:00:00 NR -13.82 141.12
SP 12:00:00 NR -13.90 141.10
SP 15:00:00 NR -13.93 141.00
SP 18:00:00 NR -13.96 140.91
SP 21:00:00 NR -14.01 140.84
SP 1899-03-07 00:00:00 NR -14.10 140.80
SP 03:00:00 NR -14.27 140.81
SP 06:00:00 NR -14.48 140.85
SP 09:00:00 NR -14.70 140.92
SP 12:00:00 NR -14.90 141.00
SP 15:00:00 NR -15.04 141.09
SP 18:00:00 NR -15.17 141.19
SP 21:00:00 NR -15.28 141.29
SP 1899-03-08 00:00:00 NR -15.40 141.40
SP 03:00:00 NR -15.54 141.51
SP 06:00:00 NR -15.69 141.62
SP 09:00:00 NR -15.85 141.72
SP 12:00:00 NR -16.00 141.80
SP 15:00:00 NR -16.17 141.89
SP 18:00:00 NR -16.34 141.95
SP 21:00:00 NR -16.49 141.96
SP 1899-03-09 00:00:00 NR -16.60 141.90
SP 03:00:00 NR -16.66 141.74
SP 06:00:00 NR -16.67 141.52
SP 09:00:00 NR -16.65 141.26
SP 12:00:00 NR -16.60 141.00
SP 15:00:00 NR -16.54 140.77
SP 18:00:00 NR -16.46 140.56
SP 21:00:00 NR -16.38 140.38
SP 1899-03-10 00:00:00 NR -16.30 140.20

Source Information

Agency Information
USA
TOKYO
CMA
HKO
NEWDELHI
REUNION
BOM
NADI
WELLINGTON
DS824
TD9636 cons_worldwide_trop_cyclone_18710101-19891231-006:Line=111
TD9635
NEUMANN
MLC

All available IBTrACS Data

SEASON BASIN SUBBASIN ISO_TIME_________ NATURE LAT LON DIST2LAND LANDFALL IFLAG USA SSHS TD9636 LAT TD9636 LON TD9636 STAGE STORM SPEED STORM DIR
Year degrees north degrees east km km 1 degrees north degrees east kts degrees
1899 SP EA 1899-03-03 12:00:00 NR -12.20 145.40 220 220 __________O___ -1 -12.20 145.40 7 0 0
1899 SP EA 15:00:00 NR -12.18 145.41 220 220 __________P___ -1 -12.18 145.41 7 0 0
1899 SP EA 18:00:00 NR -12.18 145.42 220 220 __________P___ -1 -12.18 145.42 7 0 145
1899 SP EA 21:00:00 NR -12.21 145.42 220 216 __________P___ -1 -12.21 145.42 7 1 0
1899 SP EA 1899-03-04 00:00:00 NR -12.30 145.40 216 213 __________O___ -1 -12.30 145.40 7 2 193
1899 SP EA 03:00:00 NR -12.45 145.36 213 198 __________P___ -1 -12.45 145.36 7 4 198
1899 SP EA 06:00:00 NR -12.63 145.30 198 184 __________P___ -1 -12.63 145.30 7 4 201
1899 SP EA 09:00:00 NR -12.83 145.21 184 159 __________P___ -1 -12.83 145.21 7 4 207
1899 SP EA 12:00:00 NR -13.00 145.10 159 144 __________O___ -1 -13.00 145.10 7 3 215
1899 SP EA 15:00:00 NR -13.11 145.01 144 130 __________P___ -1 -13.11 145.01 7 3 227
1899 SP EA 18:00:00 NR -13.19 144.89 130 121 __________P___ -1 -13.19 144.89 7 3 243
1899 SP EA 21:00:00 NR -13.25 144.73 121 98 __________P___ -1 -13.25 144.73 7 4 253
1899 SP EA 1899-03-05 00:00:00 NR -13.30 144.50 98 64 __________O___ -1 -13.30 144.50 7 5 258
1899 SP EA 03:00:00 NR -13.36 144.19 64 21 __________P___ -1 -13.36 144.19 7 7 260
1899 SP EA 06:00:00 NR -13.42 143.83 21 0 __________P___ -1 -13.42 143.83 7 8 262
1899 SP EA 09:00:00 NR -13.46 143.42 0 0 __________P___ -1 -13.46 143.42 7 8 264
1899 SP EA 12:00:00 NR -13.50 143.00 0 0 __________O___ -1 -13.50 143.00 7 8 266
1899 SP EA 15:00:00 NR -13.52 142.55 0 0 __________P___ -1 -13.52 142.55 7 9 267
1899 SP EA 18:00:00 NR -13.54 142.11 0 0 __________P___ -1 -13.54 142.11 7 8 267
1899 SP EA 21:00:00 NR -13.57 141.71 0 0 __________P___ -1 -13.57 141.71 7 7 265
1899 SP EA 1899-03-06 00:00:00 NR -13.60 141.40 21 21 __________O___ -1 -13.60 141.40 7 5 258
1899 SP EA 03:00:00 NR -13.66 141.23 39 39 __________P___ -1 -13.66 141.23 7 3 239
1899 SP EA 06:00:00 NR -13.74 141.15 39 39 __________P___ -1 -13.74 141.15 7 2 213
1899 SP EA 09:00:00 NR -13.82 141.12 44 43 __________P___ -1 -13.82 141.12 7 2 200
1899 SP EA 12:00:00 NR -13.90 141.10 43 43 __________O___ -1 -13.90 141.10 7 2 226
1899 SP EA 15:00:00 NR -13.93 141.00 53 53 __________P___ -1 -13.93 141.00 7 2 251
1899 SP EA 18:00:00 NR -13.96 140.91 65 65 __________P___ -1 -13.96 140.91 7 2 244
1899 SP EA 21:00:00 NR -14.01 140.84 76 76 __________P___ -1 -14.01 140.84 7 2 219
1899 SP EA 1899-03-07 00:00:00 NR -14.10 140.80 78 78 __________O___ -1 -14.10 140.80 7 3 190
1899 SP EA 03:00:00 NR -14.27 140.81 78 75 __________P___ -1 -14.27 140.81 7 4 174
1899 SP EA 06:00:00 NR -14.48 140.85 75 64 __________P___ -1 -14.48 140.85 7 4 166
1899 SP EA 09:00:00 NR -14.70 140.92 68 63 __________P___ -1 -14.70 140.92 7 5 161
1899 SP EA 12:00:00 NR -14.90 141.00 68 63 __________O___ -1 -14.90 141.00 7 4 155
1899 SP EA 15:00:00 NR -15.04 141.09 63 44 __________P___ -1 -15.04 141.09 7 3 146
1899 SP EA 18:00:00 NR -15.17 141.19 44 31 __________P___ -1 -15.17 141.19 7 3 140
1899 SP EA 21:00:00 NR -15.28 141.29 31 15 __________P___ -1 -15.28 141.29 7 3 139
1899 SP EA 1899-03-08 00:00:00 NR -15.40 141.40 15 0 __________O___ -1 -15.40 141.40 7 3 141
1899 SP EA 03:00:00 NR -15.54 141.51 0 0 __________P___ -1 -15.54 141.51 7 4 144
1899 SP EA 06:00:00 NR -15.69 141.62 0 0 __________P___ -1 -15.69 141.62 7 4 146
1899 SP EA 09:00:00 NR -15.85 141.72 0 0 __________P___ -1 -15.85 141.72 7 4 151
1899 SP EA 12:00:00 NR -16.00 141.80 0 0 __________O___ -1 -16.00 141.80 7 4 154
1899 SP EA 15:00:00 NR -16.17 141.89 0 0 __________P___ -1 -16.17 141.89 7 4 157
1899 SP EA 18:00:00 NR -16.34 141.95 0 0 __________P___ -1 -16.34 141.95 7 3 168
1899 SP EA 21:00:00 NR -16.49 141.96 0 0 __________P___ -1 -16.49 141.96 7 3 190
1899 SP EA 1899-03-09 00:00:00 NR -16.60 141.90 0 0 __________O___ -1 -16.60 141.90 7 3 232
1899 SP EA 03:00:00 NR -16.66 141.74 0 0 __________P___ -1 -16.66 141.74 7 4 260
1899 SP EA 06:00:00 NR -16.67 141.52 0 0 __________P___ -1 -16.67 141.52 7 5 271
1899 SP EA 09:00:00 NR -16.65 141.26 0 0 __________P___ -1 -16.65 141.26 7 5 278
1899 SP EA 12:00:00 NR -16.60 141.00 24 24 __________O___ -1 -16.60 141.00 7 5 283
1899 SP EA 15:00:00 NR -16.54 140.77 48 48 __________P___ -1 -16.54 140.77 7 4 288
1899 SP EA 18:00:00 NR -16.46 140.56 67 67 __________P___ -1 -16.46 140.56 7 4 292
1899 SP EA 21:00:00 NR -16.38 140.38 91 91 __________P___ -1 -16.38 140.38 7 4 295
1899 SP EA 1899-03-10 00:00:00 NR -16.30 140.20 115 __________O___ -1 -16.30 140.20 7 4 296